Time;durP1;ratioP1;P1;durP2;ratioP2;P2;SDS_P1;SDS_P2;PMS_P1;PMS_P2;Temp;Humidity;BMP_temperature;BMP_pressure;BME280_temperature;BME280_humidity;BME280_pressure;Samples;Min_cycle;Max_cycle;Signal;HPM_P1;HPM_P2
2023/12/18 00:01:11;;;;;;;6.90;6.30;;;;;;;18.33;40.27;100100.62;108236;1253;75195;-66
2023/12/18 00:03:39;;;;;;;7.10;6.50;;;;;;;18.44;39.96;100105.48;108173;1253;69995;-66
2023/12/18 00:06:07;;;;;;;;;;;;;;;18.49;39.89;100099.30;108211;1254;72354;-65
2023/12/18 00:08:35;;;;;;;6.80;6.00;;;;;;;18.70;39.46;100092.73;108265;1253;61639;-65
2023/12/18 00:11:02;;;;;;;7.40;6.60;;;;;;;18.59;39.54;100092.23;108325;1253;60117;-66
2023/12/18 00:13:31;;;;;;;;;;;;;;;18.57;39.70;100096.64;108477;1251;74596;-66
2023/12/18 00:15:59;;;;;;;6.40;5.70;;;;;;;18.35;39.87;100094.21;108110;1251;69177;-65
2023/12/18 00:18:26;;;;;;;6.50;5.50;;;;;;;18.25;40.22;100088.70;108313;1253;72325;-65
2023/12/18 00:20:54;;;;;;;;;;;;;;;18.40;40.34;100085.77;108440;1251;61728;-66
2023/12/18 00:23:22;;;;;;;;;;;;;;;18.33;40.34;100081.75;108440;1253;59919;-65
2023/12/18 00:25:49;;;;;;;;;;;;;;;18.34;40.38;100078.53;108414;1252;73648;-65
2023/12/18 00:28:17;;;;;;;;;;;;;;;18.31;40.50;100069.66;108438;1253;69310;-65
2023/12/18 00:30:45;;;;;;;6.10;5.50;;;;;;;18.47;40.41;100053.84;108312;1251;72371;-64
2023/12/18 00:33:13;;;;;;;5.80;4.70;;;;;;;18.35;40.64;100061.98;108278;1253;60578;-64
2023/12/18 00:35:41;;;;;;;5.30;4.80;;;;;;;18.26;40.80;100057.42;108263;1253;59956;-64
2023/12/18 00:38:09;;;;;;;4.30;3.90;;;;;;;17.93;41.30;100064.21;108361;1252;73676;-64
2023/12/18 00:40:36;;;;;;;4.50;4.10;;;;;;;18.04;41.19;100064.02;108382;1252;68411;-65
2023/12/18 00:43:04;;;;;;;4.40;4.00;;;;;;;18.11;41.12;100063.21;108297;1253;71460;-64
2023/12/18 00:45:32;;;;;;;;;;;;;;;18.35;40.56;100050.17;108381;1253;61366;-64
2023/12/18 00:48:00;;;;;;;4.80;4.40;;;;;;;18.24;40.66;100041.20;108472;1253;59954;-64
2023/12/18 00:50:27;;;;;;;;;;;;;;;18.35;40.53;100036.69;108287;1251;73690;-64
2023/12/18 00:52:55;;;;;;;4.70;4.30;;;;;;;18.67;39.86;100034.91;108226;1253;69594;-64
2023/12/18 00:55:23;;;;;;;;;;;;;;;18.07;40.87;100035.27;108379;1253;72558;-64
2023/12/18 00:57:51;;;;;;;;;;;;;;;18.52;40.01;100032.02;108296;1253;61822;-62
2023/12/18 01:00:21;;;;;;;5.80;4.70;;;;;;;17.93;40.94;100045.07;108392;1251;58541;-64
2023/12/18 01:02:49;;;;;;;5.00;4.50;;;;;;;18.40;40.33;100044.56;108320;1251;73404;-64
2023/12/18 01:05:17;;;;;;;5.40;4.90;;;;;;;18.36;40.31;100044.46;108399;1253;70303;-64
2023/12/18 01:07:45;;;;;;;5.80;4.90;;;;;;;18.39;40.40;100044.10;108224;1254;73361;-64
2023/12/18 01:10:13;;;;;;;6.10;5.00;;;;;;;18.54;40.10;100044.48;108254;1253;61865;-65
2023/12/18 01:12:41;;;;;;;5.70;5.10;;;;;;;18.64;40.10;100036.14;108303;1252;59641;-64
2023/12/18 01:15:09;;;;;;;;;;;;;;;18.68;40.11;100025.56;108330;1252;73788;-64
2023/12/18 01:17:36;;;;;;;;;;;;;;;18.64;40.06;100014.52;108210;1253;69482;-64
2023/12/18 01:20:05;;;;;;;5.30;4.70;;;;;;;18.51;40.26;100015.55;108130;1253;71868;-64
2023/12/18 01:22:33;;;;;;;5.40;4.90;;;;;;;18.53;40.14;100016.49;108234;1254;62393;-64
2023/12/18 01:25:02;;;;;;;6.10;5.60;;;;;;;18.88;39.76;100013.17;108414;1252;60222;-64
2023/12/18 01:27:30;;;;;;;5.70;5.10;;;;;;;18.99;39.27;100011.65;108309;1253;73016;-64
2023/12/18 01:29:58;;;;;;;6.10;5.50;;;;;;;19.01;39.11;100002.25;107915;1253;69537;-64
2023/12/18 01:32:26;;;;;;;5.90;5.40;;;;;;;19.18;38.85;99997.48;108230;1253;72525;-64
2023/12/18 01:34:54;;;;;;;6.40;5.90;;;;;;;19.30;38.67;99990.09;108381;1253;61429;-64
2023/12/18 01:37:22;;;;;;;7.40;6.60;;;;;;;19.20;38.77;99982.61;108229;1253;59836;-64
2023/12/18 01:39:49;;;;;;;7.00;6.20;;;;;;;18.96;38.95;99980.59;108243;1253;73625;-64
2023/12/18 01:42:17;;;;;;;7.60;6.30;;;;;;;18.94;39.12;99973.70;108361;1253;69182;-64
2023/12/18 01:44:44;;;;;;;;;;;;;;;19.10;38.98;99980.52;108330;1253;72656;-64
2023/12/18 01:47:12;;;;;;;7.80;6.90;;;;;;;18.94;39.06;99981.80;108233;1253;61479;-64
2023/12/18 01:49:40;;;;;;;7.60;6.90;;;;;;;18.79;39.36;99974.01;108259;1253;59765;-65
2023/12/18 01:52:07;;;;;;;8.00;7.20;;;;;;;18.59;39.85;99966.57;108337;1253;74099;-65
2023/12/18 01:54:35;;;;;;;7.50;6.80;;;;;;;18.96;39.19;99958.77;108314;1253;69253;-65
2023/12/18 01:57:03;;;;;;;7.90;7.10;;;;;;;18.75;39.49;99948.03;108337;1253;72594;-68
2023/12/18 01:59:31;;;;;;;8.10;7.10;;;;;;;18.51;39.88;99938.41;108158;1253;61452;-64
2023/12/18 02:01:59;;;;;;;10.30;7.80;;;;;;;18.95;39.32;99945.48;108201;1253;58788;-64
2023/12/18 02:04:26;;;;;;;9.70;7.00;;;;;;;19.07;39.12;99949.65;108362;1253;73540;-64
2023/12/18 02:06:54;;;;;;;9.20;7.90;;;;;;;18.81;39.58;99949.38;108327;1253;69174;-64
2023/12/18 02:09:22;;;;;;;11.00;8.10;;;;;;;18.79;39.68;99943.66;108210;1254;73278;-64
2023/12/18 02:11:50;;;;;;;9.50;8.20;;;;;;;18.77;39.59;99949.48;108299;1253;62212;-64
2023/12/18 02:14:18;;;;;;;11.50;9.20;;;;;;;18.88;39.29;99952.48;108138;1253;58893;-64
2023/12/18 02:16:45;;;;;;;11.00;9.50;;;;;;;19.21;38.78;99969.25;108299;1252;74096;-64
2023/12/18 02:19:26;;;;;;;12.30;10.20;;;;;;;18.80;39.29;99967.33;107957;1254;72447;-64
2023/12/18 02:21:54;;;;;;;13.00;9.80;;;;;;;18.71;39.71;99959.68;108087;1254;74766;-64
2023/12/18 02:24:22;;;;;;;;;;;;;;;18.78;39.57;99951.70;108323;1253;60522;-63
2023/12/18 02:26:49;;;;;;;;;;;;;;;18.71;39.80;99949.56;108224;1253;58703;-64
2023/12/18 02:29:17;;;;;;;;;;;;;;;18.74;39.86;99945.93;108297;1254;74091;-63
2023/12/18 02:31:45;;;;;;;14.60;9.70;;;;;;;18.69;39.80;99942.43;108215;1253;68059;-65
2023/12/18 02:34:12;;;;;;;14.40;9.90;;;;;;;19.16;39.14;99940.27;108409;1253;72891;-65
2023/12/18 02:36:40;;;;;;;14.90;10.60;;;;;;;19.26;38.78;99936.02;108208;1253;61826;-64
2023/12/18 02:39:08;;;;;;;13.30;10.40;;;;;;;18.85;39.30;99937.03;108385;1253;59676;-64
2023/12/18 02:41:36;;;;;;;12.80;10.20;;;;;;;18.59;40.00;99939.23;108376;1253;74145;-64
2023/12/18 02:44:04;;;;;;;14.30;10.80;;;;;;;19.01;39.34;99950.09;108325;1253;70129;-64
2023/12/18 02:46:32;;;;;;;;;;;;;;;18.56;39.97;99961.27;108168;1254;72323;-64
2023/12/18 02:48:59;;;;;;;15.00;10.60;;;;;;;18.52;40.08;99966.36;108279;1253;61416;-64
2023/12/18 02:51:27;;;;;;;14.90;11.10;;;;;;;18.55;40.16;99973.27;108353;1253;60110;-65
2023/12/18 02:53:55;;;;;;;14.30;10.90;;;;;;;18.27;40.61;99976.98;108223;1254;74126;-64
2023/12/18 02:56:23;;;;;;;14.30;11.00;;;;;;;18.62;40.14;99980.92;108154;1252;69436;-65
2023/12/18 02:58:50;;;;;;;14.70;11.00;;;;;;;18.50;40.51;99976.27;108329;1252;72358;-64
2023/12/18 03:01:18;;;;;;;12.30;10.10;;;;;;;18.70;40.26;99976.07;108176;1254;62530;-64
2023/12/18 03:03:46;;;;;;;14.80;10.00;;;;;;;18.78;40.08;99969.48;108291;1253;58806;-64
2023/12/18 03:06:14;;;;;;;13.10;9.90;;;;;;;18.84;40.03;99970.84;108239;1254;72988;-65
2023/12/18 03:08:41;;;;;;;14.80;10.30;;;;;;;18.71;40.33;99966.23;108415;1253;69115;-64
2023/12/18 03:11:09;;;;;;;11.60;9.10;;;;;;;18.75;40.15;99960.98;108199;1254;73007;-64
2023/12/18 03:13:37;;;;;;;12.60;9.70;;;;;;;18.90;40.09;99958.66;108320;1253;61464;-65
2023/12/18 03:16:05;;;;;;;11.60;9.30;;;;;;;18.79;40.44;99959.45;108349;1253;59802;-64
2023/12/18 03:18:33;;;;;;;13.50;10.20;;;;;;;18.93;40.22;99959.38;108350;1253;74512;-64
2023/12/18 03:21:01;;;;;;;12.20;9.40;;;;;;;18.93;40.21;99960.62;108293;1253;70106;-64
2023/12/18 03:23:29;;;;;;;14.00;10.60;;;;;;;18.99;40.28;99961.41;107906;1253;72501;-65
2023/12/18 03:25:56;;;;;;;13.40;10.10;;;;;;;18.88;40.72;99957.61;108381;1253;61400;-65
2023/12/18 03:28:24;;;;;;;12.70;9.90;;;;;;;18.88;40.72;99960.77;108254;1253;60150;-64
2023/12/18 03:30:52;;;;;;;13.00;9.80;;;;;;;18.79;40.77;99954.48;108413;1253;73768;-64
2023/12/18 03:33:20;;;;;;;11.60;9.40;;;;;;;19.09;40.26;99958.05;108270;1253;70053;-64
2023/12/18 03:35:48;;;;;;;14.10;9.80;;;;;;;19.00;40.61;99949.92;108313;1253;72429;-64
2023/12/18 03:38:15;;;;;;;12.90;9.80;;;;;;;18.80;40.84;99949.82;108222;1253;62280;-64
2023/12/18 03:40:43;;;;;;;11.70;9.10;;;;;;;18.99;40.67;99944.16;108412;1253;59676;-64
2023/12/18 03:43:10;;;;;;;12.70;9.40;;;;;;;19.06;40.68;99941.88;108231;1256;74033;-63
2023/12/18 03:45:38;;;;;;;12.70;10.10;;;;;;;19.24;40.43;99949.98;108354;1253;69819;-64
2023/12/18 03:48:06;;;;;;;11.70;8.40;;;;;;;19.59;39.84;99941.46;108339;1254;71529;-63
2023/12/18 03:50:34;;;;;;;13.50;9.70;;;;;;;19.73;39.65;99938.17;108195;1252;61549;-64
2023/12/18 03:53:02;;;;;;;12.90;10.10;;;;;;;19.46;39.85;99931.82;108385;1253;62569;-63
2023/12/18 03:55:30;;;;;;;11.50;10.20;;;;;;;19.54;39.98;99931.94;108208;1255;72509;-63
2023/12/18 03:57:58;;;;;;;15.10;10.40;;;;;;;19.55;39.79;99928.35;108187;1255;69173;-64
2023/12/18 04:00:26;;;;;;;13.00;10.90;;;;;;;19.71;39.67;99920.54;108348;1253;72329;-63
2023/12/18 04:02:54;;;;;;;12.00;9.90;;;;;;;19.87;39.43;99914.45;108269;1253;62270;-63
2023/12/18 04:05:25;;;;;;;12.90;10.20;;;;;;;19.59;39.77;99916.09;108218;1253;59166;-63
2023/12/18 04:07:53;;;;;;;13.20;10.40;;;;;;;19.58;39.70;99912.60;108484;1253;73803;-63
2023/12/18 04:10:21;;;;;;;14.10;11.10;;;;;;;19.68;39.34;99912.90;108357;1252;70055;-63
2023/12/18 04:12:48;;;;;;;13.10;10.20;;;;;;;19.80;39.04;99911.48;108377;1252;73386;-63
2023/12/18 04:15:16;;;;;;;;;;;;;;;19.51;39.34;99909.91;108260;1253;61381;-63
2023/12/18 04:17:44;;;;;;;;;;;;;;;19.23;39.75;99910.77;108327;1251;59898;-64
2023/12/18 04:20:12;;;;;;;15.10;11.00;;;;;;;19.14;39.83;99905.98;108375;1253;73062;-64
2023/12/18 04:22:40;;;;;;;;;;;;;;;19.15;40.06;99896.48;108419;1252;69575;-64
2023/12/18 04:25:08;;;;;;;15.00;11.40;;;;;;;18.92;40.43;99899.56;108396;1253;71653;-63
2023/12/18 04:27:36;;;;;;;17.00;12.60;;;;;;;19.06;40.16;99898.67;108260;1254;61382;-63
2023/12/18 04:30:04;;;;;;;17.50;12.70;;;;;;;19.47;39.67;99909.02;108398;1253;60134;-64
2023/12/18 04:32:32;;;;;;;15.40;11.60;;;;;;;19.42;39.62;99910.59;108335;1253;75791;-63
2023/12/18 04:35:00;;;;;;;;;;;;;;;19.42;39.45;99911.11;108441;1253;70648;-64
2023/12/18 04:37:27;;;;;;;18.60;12.10;;;;;;;19.15;39.61;99927.20;108298;1254;74115;-64
2023/12/18 04:39:55;;;;;;;13.70;11.30;;;;;;;19.24;39.60;99918.36;108386;1252;61396;-62
2023/12/18 04:42:23;;;;;;;17.40;12.20;;;;;;;19.52;39.03;99901.55;108357;1253;59783;-64
2023/12/18 04:44:51;;;;;;;16.80;12.00;;;;;;;19.02;39.80;99891.00;108380;1253;74082;-63
2023/12/18 04:47:19;;;;;;;19.10;12.90;;;;;;;18.62;40.32;99892.16;108353;1251;69122;-63
2023/12/18 04:49:47;;;;;;;16.90;12.70;;;;;;;18.42;41.01;99895.69;108442;1254;72899;-64
2023/12/18 04:52:15;;;;;;;17.60;13.30;;;;;;;18.32;41.26;99891.79;108485;1253;60471;-63
2023/12/18 04:54:42;;;;;;;17.20;13.10;;;;;;;18.30;41.33;99894.39;108410;1251;61154;-63
2023/12/18 04:57:10;;;;;;;;;;;;;;;18.29;41.39;99902.66;108470;1252;73997;-63
2023/12/18 04:59:38;;;;;;;;;;;;;;;18.09;41.71;99901.05;108388;1252;70043;-64
2023/12/18 05:02:05;;;;;;;;;;;;;;;18.59;41.08;99887.36;108439;1253;72928;-63
2023/12/18 05:04:33;;;;;;;;;;;;;;;18.96;40.50;99877.07;108381;1253;61655;-63
2023/12/18 05:07:02;;;;;;;17.90;12.30;;;;;;;18.54;40.87;99884.18;108195;1253;60426;-63
2023/12/18 05:09:29;;;;;;;;;;;;;;;18.63;40.95;99893.30;107902;1253;73571;-63
2023/12/18 05:11:57;;;;;;;;;;;;;;;18.64;41.00;99877.27;108181;1253;69128;-63
2023/12/18 05:14:25;;;;;;;19.30;13.50;;;;;;;18.57;40.95;99887.30;107893;1253;72418;-63
2023/12/18 05:16:52;;;;;;;18.90;13.50;;;;;;;18.82;40.64;99892.80;108352;1253;62383;-63
2023/12/18 05:19:20;;;;;;;16.00;12.60;;;;;;;18.74;40.85;99883.30;108372;1254;59856;-63
2023/12/18 05:21:48;;;;;;;16.00;12.60;;;;;;;18.77;40.90;99892.17;108272;1252;73861;-63
2023/12/18 05:24:16;;;;;;;;;;;;;;;18.72;40.97;99886.64;108410;1253;69347;-63
2023/12/18 05:26:43;;;;;;;16.70;12.80;;;;;;;18.85;40.73;99896.70;108150;1254;72379;-64
2023/12/18 05:29:11;;;;;;;17.30;13.20;;;;;;;19.08;40.59;99907.08;108121;1254;61782;-64
2023/12/18 05:31:39;;;;;;;16.10;12.50;;;;;;;19.25;40.10;99909.42;108193;1253;59853;-64
2023/12/18 05:34:07;;;;;;;16.30;12.20;;;;;;;18.76;41.20;99914.20;108098;1253;74103;-62
2023/12/18 05:36:35;;;;;;;17.80;13.30;;;;;;;18.69;41.32;99914.36;108087;1259;69084;-63
2023/12/18 05:39:02;;;;;;;15.70;12.70;;;;;;;18.80;41.10;99917.63;108281;1254;72329;-63
2023/12/18 05:41:30;;;;;;;15.50;12.90;;;;;;;18.80;41.30;99916.92;108168;1253;62357;-63
2023/12/18 05:43:58;;;;;;;;;;;;;;;19.39;40.49;99910.48;108238;1253;59766;-63
2023/12/18 05:46:25;;;;;;;;;;;;;;;19.30;40.39;99904.73;107966;1253;72768;-63
2023/12/18 05:51:50;;;;;;;17.40;14.00;;;;;;;19.78;39.80;99901.30;102666;1291;601679;-63
2023/12/18 05:54:18;;;;;;;18.40;13.00;;;;;;;20.27;39.10;99897.37;104183;1270;61840;-63
2023/12/18 05:56:46;;;;;;;16.80;12.70;;;;;;;20.02;39.09;99898.23;104267;1270;59712;-63
2023/12/18 05:59:14;;;;;;;16.40;13.60;;;;;;;19.72;39.64;99893.03;104461;1270;71915;-64
2023/12/18 06:01:41;;;;;;;;;;;;;;;19.44;40.24;99897.11;104644;1271;71130;-63
2023/12/18 06:04:09;;;;;;;;;;;;;;;19.66;39.81;99895.60;104691;1266;72907;-67
2023/12/18 06:06:37;;;;;;;17.50;13.40;;;;;;;19.63;39.85;99901.02;104770;1264;153169;-64
2023/12/18 06:09:05;;;;;;;;;;;;;;;19.71;39.51;99894.90;104829;1266;59720;-64
2023/12/18 06:11:33;;;;;;;20.40;14.60;;;;;;;19.56;39.82;99900.48;104873;1268;71991;-64
2023/12/18 06:14:01;;;;;;;17.60;14.80;;;;;;;19.61;39.83;99900.17;105048;1266;69706;-63
2023/12/18 06:16:29;;;;;;;17.60;14.50;;;;;;;19.66;39.70;99903.09;104906;1266;71705;-64
2023/12/18 06:18:59;;;;;;;18.60;15.10;;;;;;;19.69;39.62;99899.34;104711;1268;61821;-61
2023/12/18 06:23:33;;;;;;;22.70;16.60;;;;;;;19.30;42.44;99894.90;101437;1292;601684;-61
2023/12/18 06:26:03;;;;;;;20.50;15.80;;;;;;;20.95;37.98;99894.38;103686;1270;61453;-61
2023/12/18 06:28:32;;;;;;;23.30;16.90;;;;;;;20.83;37.93;99889.70;104872;1262;59680;-61
2023/12/18 06:31:00;;;;;;;23.00;16.90;;;;;;;20.67;38.12;99887.25;104113;1274;71974;-61
2023/12/18 06:33:28;;;;;;;23.30;17.50;;;;;;;21.05;37.47;99886.80;104185;1272;69072;-61
2023/12/18 06:35:56;;;;;;;27.10;18.50;;;;;;;20.63;37.85;99886.09;104116;1259;72500;-66
2023/12/18 06:38:23;;;;;;;;;;;;;;;20.35;38.37;99885.52;104050;1260;190451;-61
2023/12/18 06:40:51;;;;;;;;;;;;;;;19.99;38.78;99875.15;104625;1259;59379;-60
2023/12/18 06:43:19;;;;;;;24.30;17.30;;;;;;;20.16;38.77;99872.73;104834;1255;72344;-61
2023/12/18 06:45:50;;;;;;;24.40;18.30;;;;;;;19.92;39.04;99870.20;104844;1260;69068;-59
2023/12/18 06:48:17;;;;;;;;;;;;;;;19.78;39.12;99874.84;104501;1260;72398;-62
2023/12/18 06:50:45;;;;;;;27.40;17.80;;;;;;;19.60;39.53;99877.95;104789;1262;62876;-63
2023/12/18 06:53:13;;;;;;;;;;;;;;;19.40;39.77;99886.02;105020;1261;60480;-62
2023/12/18 06:55:41;;;;;;;26.90;19.40;;;;;;;19.39;39.95;99885.98;104602;1262;73191;-66
2023/12/18 06:58:09;;;;;;;;;;;;;;;19.12;40.27;99891.02;104417;1265;69063;-64
2023/12/18 07:00:37;;;;;;;28.10;19.70;;;;;;;19.28;40.10;99896.59;104565;1272;72771;-64
2023/12/18 07:03:08;;;;;;;26.50;20.00;;;;;;;19.36;40.01;99897.89;104297;1260;61440;-64
2023/12/18 07:05:36;;;;;;;21.70;17.90;;;;;;;19.51;39.82;99901.62;105290;1262;59290;-63
2023/12/18 07:08:05;;;;;;;27.40;19.30;;;;;;;19.54;39.71;99895.52;104431;1260;72884;-65
2023/12/18 07:10:32;;;;;;;27.30;19.30;;;;;;;19.73;39.37;99893.14;104821;1255;69246;-65
2023/12/18 07:13:00;;;;;;;28.90;20.00;;;;;;;19.85;39.21;99889.23;104428;1262;73168;-64
2023/12/18 07:15:28;;;;;;;26.70;18.90;;;;;;;19.85;39.19;99892.23;105119;1260;60275;-63
2023/12/18 07:18:00;;;;;;;26.80;20.00;;;;;;;19.81;39.18;99889.52;105027;1259;59821;-64
2023/12/18 07:20:28;;;;;;;25.60;19.80;;;;;;;19.67;39.36;99892.23;104584;1260;72778;-65
2023/12/18 07:22:56;;;;;;;26.90;19.20;;;;;;;19.51;39.56;99893.75;104591;1261;69390;-65
2023/12/18 07:25:25;;;;;;;27.10;20.00;;;;;;;19.63;39.47;99895.69;104423;1260;72953;-66
2023/12/18 07:27:52;;;;;;;26.50;18.60;;;;;;;19.61;39.47;99895.70;104571;1259;60439;-65
2023/12/18 07:30:21;;;;;;;31.50;20.20;;;;;;;19.55;39.47;99897.02;104795;1260;59676;-66
2023/12/18 07:32:50;;;;;;;26.10;19.30;;;;;;;19.48;39.64;99897.70;105094;1262;72915;-64
2023/12/18 07:35:18;;;;;;;25.10;19.00;;;;;;;19.51;39.59;99897.83;104812;1260;72060;-67
2023/12/18 07:37:46;;;;;;;26.60;19.10;;;;;;;19.57;39.48;99893.48;105110;1254;72486;-67
2023/12/18 07:40:14;;;;;;;;;;;;;;;19.61;39.56;99892.32;104535;1276;61700;-66
2023/12/18 07:42:42;;;;;;;27.30;19.90;;;;;;;19.64;39.43;99894.04;104585;1262;59749;-67
2023/12/18 07:45:10;;;;;;;27.20;21.20;;;;;;;19.64;39.31;99889.07;104631;1256;72893;-63
2023/12/18 07:47:40;;;;;;;28.00;20.00;;;;;;;20.05;38.74;99884.13;104739;1254;69073;-64
2023/12/18 07:50:08;;;;;;;27.50;21.00;;;;;;;19.59;39.29;99886.90;104679;1263;72950;-64
2023/12/18 07:52:36;;;;;;;;;;;;;;;19.48;39.49;99888.16;104640;1260;61448;-62
2023/12/18 07:55:05;;;;;;;31.90;22.10;;;;;;;19.35;39.67;99893.01;105463;1254;59696;-60
2023/12/18 07:57:33;;;;;;;28.30;20.80;;;;;;;19.57;39.38;99898.46;104615;1256;72871;-64
2023/12/18 08:00:02;;;;;;;28.40;20.20;;;;;;;19.35;39.62;99898.17;104691;1260;69941;-63
2023/12/18 08:02:37;;;;;;;30.00;21.30;;;;;;;19.12;40.15;99898.27;105167;1256;72016;-64
2023/12/18 08:05:06;;;;;;;22.50;17.70;;;;;;;19.13;40.26;99897.84;104855;1260;63085;-64
2023/12/18 08:07:34;;;;;;;26.80;20.10;;;;;;;18.97;40.56;99900.07;105323;1260;60050;-62
2023/12/18 08:10:04;;;;;;;26.70;20.50;;;;;;;18.92;40.79;99897.80;104372;1256;73092;-64
2023/12/18 08:12:33;;;;;;;29.70;20.40;;;;;;;19.19;40.38;99901.11;104813;1260;69716;-64
2023/12/18 08:15:02;;;;;;;30.60;21.10;;;;;;;19.41;40.13;99900.73;104575;1262;72653;-63
2023/12/18 08:17:37;;;;;;;25.00;19.70;;;;;;;19.30;40.37;99900.84;104682;1258;61789;-63
2023/12/18 08:20:07;;;;;;;30.30;20.60;;;;;;;19.40;40.09;99901.15;104506;1262;59599;-59
2023/12/18 08:22:35;;;;;;;28.10;20.30;;;;;;;19.31;40.21;99900.77;104398;1253;72881;-58
2023/12/18 08:25:04;;;;;;;30.10;20.80;;;;;;;19.37;40.02;99897.45;104667;1261;70218;-59
2023/12/18 08:27:33;;;;;;;24.70;20.10;;;;;;;19.31;40.22;99896.32;104567;1259;73794;-60
2023/12/18 08:30:06;;;;;;;29.70;20.30;;;;;;;19.54;39.92;99888.35;104586;1256;61378;-60
2023/12/18 08:32:35;;;;;;;29.70;20.00;;;;;;;19.84;39.31;99884.15;105406;1256;60253;-61
2023/12/18 08:35:03;;;;;;;26.70;19.10;;;;;;;20.08;38.98;99885.98;105688;1259;72947;-61
2023/12/18 08:37:31;;;;;;;27.40;20.30;;;;;;;19.87;39.17;99885.82;104924;1259;69202;-61
2023/12/18 08:40:00;;;;;;;29.10;21.20;;;;;;;19.86;39.16;99886.45;104701;1260;75088;-62
2023/12/18 08:42:28;;;;;;;28.70;20.00;;;;;;;19.57;39.68;99888.69;104943;1257;61557;-61
2023/12/18 08:44:55;;;;;;;28.40;20.50;;;;;;;19.53;39.55;99880.63;104599;1259;62887;-62
2023/12/18 08:47:24;;;;;;;27.50;21.50;;;;;;;19.54;39.71;99880.73;104814;1257;72749;-61
2023/12/18 08:49:53;;;;;;;27.30;20.60;;;;;;;19.87;39.30;99880.70;104858;1260;68230;-62
2023/12/18 08:52:20;;;;;;;29.40;21.00;;;;;;;19.97;38.95;99884.73;104988;1257;73389;-62
2023/12/18 08:54:48;;;;;;;31.10;21.70;;;;;;;20.17;38.57;99888.37;104532;1262;63450;-62
2023/12/18 08:57:16;;;;;;;31.30;22.40;;;;;;;20.13;38.58;99892.73;104492;1255;59762;-60
2023/12/18 08:59:44;;;;;;;32.00;22.70;;;;;;;20.02;38.58;99895.70;105058;1260;72859;-64
2023/12/18 09:02:12;;;;;;;32.80;22.30;;;;;;;19.89;38.86;99893.38;105018;1256;69056;-64
2023/12/18 09:04:40;;;;;;;32.40;22.40;;;;;;;20.15;38.57;99894.02;105275;1253;71437;-65
2023/12/18 09:07:08;;;;;;;29.80;21.40;;;;;;;20.29;38.41;99892.71;104953;1261;62824;-61
2023/12/18 09:09:39;;;;;;;25.80;19.40;;;;;;;20.31;38.20;99892.02;104596;1262;59905;-62
2023/12/18 09:12:07;;;;;;;28.50;20.60;;;;;;;20.28;38.28;99896.20;104983;1256;73706;-64
2023/12/18 09:14:35;;;;;;;31.80;21.10;;;;;;;20.00;38.68;99894.08;104521;1253;70082;-62
2023/12/18 09:17:03;;;;;;;28.80;20.10;;;;;;;19.90;38.82;99892.92;105158;1257;74193;-64
2023/12/18 09:19:31;;;;;;;32.40;21.00;;;;;;;20.05;38.73;99889.25;104457;1260;61439;-62
2023/12/18 09:21:59;;;;;;;30.10;20.30;;;;;;;20.17;38.52;99885.98;104586;1259;59365;-65
2023/12/18 09:24:28;;;;;;;26.20;19.10;;;;;;;20.07;38.62;99883.41;104922;1253;75401;-65
2023/12/18 09:26:57;;;;;;;27.40;19.50;;;;;;;20.34;38.39;99881.08;104652;1272;70154;-65
2023/12/18 09:29:25;;;;;;;25.90;18.30;;;;;;;20.54;38.16;99879.20;105094;1261;73186;-64
2023/12/18 09:31:53;;;;;;;;;;;;;;;20.62;38.03;99878.92;105271;1256;61432;-65
2023/12/18 09:34:24;;;;;;;26.30;18.00;;;;;;;20.72;37.85;99881.68;104603;1255;59858;-64
2023/12/18 09:36:52;;;;;;;24.80;18.90;;;;;;;20.65;37.89;99884.20;104453;1261;72803;-64
2023/12/18 09:39:20;;;;;;;28.20;17.70;;;;;;;20.56;37.85;99880.45;105336;1253;70058;-64
2023/12/18 09:41:49;;;;;;;26.20;18.40;;;;;;;20.55;37.92;99884.25;104606;1257;72629;-62
2023/12/18 09:44:17;;;;;;;24.50;17.10;;;;;;;20.35;38.23;99885.11;104567;1262;61478;-64
2023/12/18 09:46:45;;;;;;;24.40;17.50;;;;;;;20.49;38.15;99882.11;104958;1259;60286;-64
2023/12/18 09:49:13;;;;;;;28.40;18.90;;;;;;;20.51;38.10;99881.92;104916;1257;72561;-62
2023/12/18 09:51:44;;;;;;;23.50;18.10;;;;;;;20.37;38.19;99879.30;104944;1254;69557;-64
2023/12/18 09:54:12;;;;;;;24.60;17.80;;;;;;;20.42;38.04;99882.75;105123;1251;72296;-65
2023/12/18 09:56:44;;;;;;;24.80;18.00;;;;;;;20.13;38.60;99888.64;104971;1250;61579;-65
2023/12/18 09:59:11;;;;;;;22.80;17.00;;;;;;;20.06;38.75;99885.30;105248;1251;60855;-65
2023/12/18 10:01:39;;;;;;;;;;;;;;;20.18;38.71;99883.45;104914;1259;73068;-64
2023/12/18 10:04:07;;;;;;;24.80;17.50;;;;;;;20.26;38.48;99881.26;105359;1256;70035;-65
2023/12/18 10:06:35;;;;;;;;;;;;;;;20.50;38.19;99881.79;105586;1253;73329;-61
2023/12/18 10:09:09;;;;;;;25.50;17.70;;;;;;;20.62;37.97;99880.66;104868;1253;62506;-61
2023/12/18 10:11:37;;;;;;;22.90;17.30;;;;;;;20.61;37.94;99882.70;105462;1258;60064;-61
2023/12/18 10:14:05;;;;;;;23.70;16.90;;;;;;;20.50;38.10;99878.77;105049;1258;72826;-62
2023/12/18 10:16:34;;;;;;;21.20;17.30;;;;;;;20.84;37.59;99876.42;104930;1257;69430;-59
2023/12/18 10:19:02;;;;;;;21.80;16.70;;;;;;;20.74;37.66;99878.79;104835;1253;71870;-63
2023/12/18 10:21:31;;;;;;;24.00;17.60;;;;;;;21.05;37.33;99874.16;105517;1251;61760;-61
2023/12/18 10:23:59;;;;;;;24.00;17.30;;;;;;;21.11;37.23;99874.41;104632;1257;60734;-62
2023/12/18 10:26:28;;;;;;;;;;;;;;;21.20;36.97;99869.70;104744;1257;73162;-62
2023/12/18 10:28:56;;;;;;;23.50;16.70;;;;;;;21.01;37.21;99865.20;104669;1252;70760;-63
2023/12/18 10:31:24;;;;;;;21.40;16.70;;;;;;;20.86;37.38;99866.05;105158;1257;73323;-62
2023/12/18 10:33:51;;;;;;;;;;;;;;;20.79;37.51;99865.40;104840;1256;61511;-63
2023/12/18 10:36:20;;;;;;;22.80;15.80;;;;;;;20.79;37.66;99866.66;104954;1256;60513;-60
2023/12/18 10:38:49;;;;;;;21.40;17.00;;;;;;;20.69;37.78;99864.27;104539;1253;73717;-60
2023/12/18 10:41:20;;;;;;;23.40;17.60;;;;;;;20.28;38.42;99860.96;105814;1252;69043;-61
2023/12/18 10:43:49;;;;;;;19.70;15.50;;;;;;;20.21;38.55;99858.44;105176;1258;71477;-62
2023/12/18 10:46:21;;;;;;;19.90;16.40;;;;;;;19.87;39.09;99857.05;104760;1252;61496;-62
2023/12/18 10:48:49;;;;;;;21.40;15.70;;;;;;;19.89;39.07;99858.85;105229;1256;60646;-62
2023/12/18 10:51:20;;;;;;;22.60;17.20;;;;;;;20.02;39.01;99859.25;104900;1261;73864;-60
2023/12/18 10:53:49;;;;;;;24.50;17.20;;;;;;;19.89;39.27;99858.67;105360;1254;70074;-60
2023/12/18 10:56:17;;;;;;;20.00;16.30;;;;;;;20.04;39.05;99863.20;105024;1257;73341;-59
2023/12/18 10:58:45;;;;;;;;;;;;;;;19.83;39.37;99861.08;105934;1252;62088;-62
2023/12/18 11:01:13;;;;;;;19.90;15.80;;;;;;;19.92;39.40;99860.02;107087;1258;60045;-60
2023/12/18 11:03:42;;;;;;;21.50;15.40;;;;;;;20.11;39.24;99856.04;104974;1256;76208;-60
2023/12/18 11:06:11;;;;;;;18.00;14.10;;;;;;;20.25;38.96;99860.29;105402;1257;71835;-60
2023/12/18 11:08:39;;;;;;;20.20;14.30;;;;;;;19.98;39.07;99864.02;106155;1251;73343;-62
2023/12/18 11:11:07;;;;;;;;;;;;;;;20.14;39.03;99867.59;105791;1256;61917;-60
2023/12/18 11:14:03;;;;;;;18.00;13.80;;;;;;;19.84;39.46;99869.54;104978;1251;60450;-60
2023/12/18 11:16:57;;;;;;;18.20;13.70;;;;;;;20.01;39.39;99871.45;104927;1266;76268;-60
2023/12/18 11:19:42;;;;;;;18.50;14.90;;;;;;;20.10;39.25;99869.84;105095;1256;70876;-59
2023/12/18 11:22:10;;;;;;;15.90;13.90;;;;;;;20.18;39.18;99868.54;104928;1252;74357;-58
2023/12/18 11:24:38;;;;;;;17.40;13.20;;;;;;;20.61;38.57;99867.39;104860;1254;61397;-57
2023/12/18 11:27:06;;;;;;;17.50;13.30;;;;;;;20.55;38.67;99870.58;104783;1264;61812;-58
2023/12/18 11:29:38;;;;;;;16.30;12.40;;;;;;;20.58;38.53;99866.71;104977;1257;76625;-58
2023/12/18 11:32:06;;;;;;;15.00;12.20;;;;;;;21.03;37.96;99866.85;104812;1257;69411;-59
2023/12/18 11:34:33;;;;;;;15.30;12.40;;;;;;;21.11;37.79;99871.34;105357;1251;73795;-59